Time;durP1;ratioP1;P1;durP2;ratioP2;P2;SDS_P1;SDS_P2;PMS_P1;PMS_P2;Temp;Humidity;BMP_temperature;BMP_pressure;BME280_temperature;BME280_humidity;BME280_pressure;Samples;Min_cycle;Max_cycle;Signal;HPM_P1;HPM_P2
2022/12/17 13:08:17;;;;;;;79.40;34.03;;;0.20;99.90;;;;;;5114042;28;20200;-53
2022/12/17 13:10:44;;;;;;;72.53;32.35;;;0.10;99.90;;;;;;5113287;28;20219;-52
2022/12/17 13:13:15;;;;;;;65.43;32.55;;;0.40;99.90;;;;;;5113955;28;20193;-53
2022/12/17 13:15:46;;;;;;;66.63;33.92;;;0.30;99.90;;;;;;5113790;28;20213;-53
2022/12/17 13:18:24;;;;;;;69.80;31.90;;;0.20;99.90;;;;;;5113728;28;20611;-51
2022/12/17 13:21:00;;;;;;;72.03;34.35;;;0.60;99.90;;;;;;5113274;28;20223;-51
2022/12/17 13:23:30;;;;;;;83.43;36.28;;;0.60;99.90;;;;;;5113790;28;20227;-52
2022/12/17 13:26:17;;;;;;;65.57;32.35;;;0.60;99.90;;;;;;5113657;28;20201;-53
2022/12/17 13:28:50;;;;;;;59.53;28.90;;;0.30;99.90;;;;;;5112683;28;20204;-54
2022/12/17 13:31:21;;;;;;;53.55;30.38;;;0.30;99.90;;;;;;5113350;28;20660;-51
2022/12/17 13:33:59;;;;;;;67.63;30.55;;;0.90;99.90;;;;;;5112594;28;20252;-53
2022/12/17 13:36:32;;;;;;;66.97;31.55;;;0.20;99.90;;;;;;5113135;28;20200;-53
2022/12/17 13:39:07;;;;;;;62.20;31.98;;;0.20;99.90;;;;;;5112695;28;20553;-53
2022/12/17 13:41:35;;;;;;;75.32;34.47;;;-0.40;99.90;;;;;;5094771;28;20207;-52
2022/12/17 13:44:12;;;;;;;62.45;32.25;;;0.30;99.90;;;;;;5113085;28;20216;-52
2022/12/17 13:46:43;;;;;;;65.25;32.22;;;0.20;99.90;;;;;;5113125;28;20275;-53
2022/12/17 13:49:18;;;;;;;62.95;29.17;;;-0.10;99.90;;;;;;5112452;28;20287;-53
2022/12/17 13:51:45;;;;;;;54.70;30.20;;;0.10;99.90;;;;;;5113330;28;20207;-53
2022/12/17 13:54:15;;;;;;;59.20;30.50;;;0.00;99.90;;;;;;5112941;28;20280;-52
2022/12/17 13:56:42;;;;;;;61.03;28.90;;;0.10;99.90;;;;;;5113399;28;20244;-53
2022/12/17 13:59:20;;;;;;;62.83;30.20;;;0.00;99.90;;;;;;5112255;28;20235;-53
2022/12/17 14:01:48;;;;;;;59.67;32.38;;;-0.60;99.90;;;;;;5113489;28;20566;-54
2022/12/17 14:04:25;;;;;;;61.65;32.25;;;0.30;99.90;;;;;;5112772;28;20218;-52
2022/12/17 14:06:53;;;;;;;54.78;29.95;;;-0.40;99.90;;;;;;5112715;28;20207;-53
2022/12/17 14:09:23;;;;;;;58.92;29.55;;;0.10;99.90;;;;;;5112201;28;20206;-53
2022/12/17 14:14:39;;;;;;;64.57;30.58;;;0.30;99.90;;;;;;5094328;28;20211;-53
2022/12/17 14:17:07;;;;;;;61.35;32.75;;;0.00;99.90;;;;;;5112585;28;20235;-54
2022/12/17 14:19:36;;;;;;;60.72;30.23;;;0.10;99.90;;;;;;5111487;28;20219;-52
2022/12/17 14:22:04;;;;;;;59.75;33.60;;;-0.60;99.90;;;;;;5112670;28;20700;-52
2022/12/17 14:24:31;;;;;;;69.57;32.45;;;0.00;99.90;;;;;;5112513;28;20224;-55
2022/12/17 14:27:00;;;;;;;71.28;31.73;;;0.20;99.90;;;;;;5112325;28;20200;-51
2022/12/17 14:29:29;;;;;;;69.03;32.28;;;0.10;99.90;;;;;;5132763;22;20500;-51
2022/12/17 14:31:57;;;;;;;63.17;33.30;;;-0.20;99.90;;;;;;5111216;28;20200;-51
2022/12/17 14:34:24;;;;;;;75.55;33.75;;;0.00;99.90;;;;;;5111586;28;20620;-50
2022/12/17 14:36:57;;;;;;;71.40;34.00;;;0.00;99.90;;;;;;5111649;28;20584;-51
2022/12/17 14:39:27;;;;;;;62.83;31.48;;;-0.10;99.90;;;;;;5111437;28;20225;-50
2022/12/17 14:44:51;;;;;;;70.28;32.50;;;0.00;99.90;;;;;;5111386;28;20230;-50
2022/12/17 14:47:20;;;;;;;59.55;32.40;;;0.00;99.90;;;;;;5111404;28;20203;-50
2022/12/17 14:49:55;;;;;;;72.13;33.25;;;-0.10;99.90;;;;;;5110481;28;20269;-49
2022/12/17 14:52:30;;;;;;;63.60;31.42;;;0.00;99.90;;;;;;5111592;28;20192;-51
2022/12/17 14:54:57;;;;;;;68.55;35.53;;;0.00;99.90;;;;;;5111572;28;20304;-49
2022/12/17 14:57:23;;;;;;;66.75;33.13;;;0.10;99.90;;;;;;5111454;28;20203;-51
2022/12/17 14:59:51;;;;;;;74.13;34.72;;;-0.20;99.90;;;;;;5111180;28;20203;-51
2022/12/17 15:02:22;;;;;;;67.43;32.58;;;0.10;99.90;;;;;;5111510;28;20196;-50
2022/12/17 15:04:50;;;;;;;63.75;31.70;;;0.00;99.90;;;;;;5110701;28;20216;-53
2022/12/17 15:07:24;;;;;;;66.38;33.58;;;0.10;99.90;;;;;;5111072;28;20632;-50
2022/12/17 15:09:51;;;;;;;66.68;34.67;;;0.30;99.90;;;;;;5110474;28;20281;-51
2022/12/17 15:12:18;;;;;;;66.20;30.42;;;0.30;99.90;;;;;;5111634;28;20223;-51
2022/12/17 15:14:45;;;;;;;68.18;32.70;;;0.10;99.90;;;;;;5111248;28;20202;-50
2022/12/17 15:17:12;;;;;;;63.35;30.73;;;-0.10;99.90;;;;;;5111236;28;20193;-50
2022/12/17 15:19:39;;;;;;;68.03;32.92;;;-0.20;99.90;;;;;;5110728;28;20223;-50
2022/12/17 15:22:06;;;;;;;63.60;31.58;;;0.00;99.90;;;;;;5111562;28;20205;-51
2022/12/17 15:24:34;;;;;;;70.97;34.35;;;0.00;99.90;;;;;;5111267;28;20626;-49
2022/12/17 15:27:01;;;;;;;76.30;33.92;;;0.00;99.90;;;;;;5111241;28;20279;-50
2022/12/17 15:29:27;;;;;;;67.35;33.03;;;0.10;99.90;;;;;;5110134;28;20294;-52
2022/12/17 15:31:54;;;;;;;61.83;32.53;;;0.00;99.90;;;;;;5110830;28;20189;-51
2022/12/17 15:34:21;;;;;;;70.25;33.47;;;0.10;99.90;;;;;;5110588;28;20200;-50
2022/12/17 15:36:48;;;;;;;75.43;35.45;;;0.40;99.90;;;;;;5111249;28;20209;-50
2022/12/17 15:39:14;;;;;;;82.80;33.70;;;0.20;99.90;;;;;;5109940;28;20565;-51
2022/12/17 15:44:29;;;;;;;78.45;35.30;;;0.20;99.90;;;;;;5084250;28;20316;-51
2022/12/17 15:46:58;;;;;;;71.60;31.52;;;0.20;99.90;;;;;;5110896;28;20302;-53
2022/12/17 15:49:25;;;;;;;71.47;33.72;;;0.30;99.90;;;;;;5110115;28;20220;-52
2022/12/17 15:51:51;;;;;;;71.78;34.90;;;0.30;99.90;;;;;;5111241;28;20214;-52
2022/12/17 15:54:18;;;;;;;70.00;34.90;;;0.20;99.90;;;;;;5091813;28;20214;-50
2022/12/17 15:56:52;;;;;;;67.82;33.58;;;-0.20;99.90;;;;;;5112914;28;20275;-49
2022/12/17 15:59:19;;;;;;;91.10;40.08;;;0.30;99.90;;;;;;5113892;28;20199;-51
2022/12/17 16:01:46;;;;;;;63.45;31.55;;;0.30;99.90;;;;;;5114499;28;20272;-50
2022/12/17 16:04:12;;;;;;;61.50;28.80;;;0.50;99.90;;;;;;5113857;28;20214;-51
2022/12/17 16:06:39;;;;;;;51.28;27.90;;;0.60;99.90;;;;;;5114237;28;20200;-50
2022/12/17 16:09:05;;;;;;;58.10;29.95;;;0.20;99.90;;;;;;5113580;28;20283;-51
2022/12/17 16:11:32;;;;;;;56.85;29.85;;;0.30;99.90;;;;;;5114339;28;20192;-50
2022/12/17 16:14:00;;;;;;;65.00;32.88;;;-0.30;99.90;;;;;;5114273;28;20200;-53
2022/12/17 16:16:28;;;;;;;65.25;29.90;;;0.20;99.90;;;;;;5114125;28;20224;-51
2022/12/17 16:18:55;;;;;;;60.20;30.95;;;0.20;99.90;;;;;;5113636;28;20197;-52
2022/12/17 16:21:22;;;;;;;67.78;32.28;;;0.10;99.90;;;;;;5114379;28;20216;-52
2022/12/17 16:23:48;;;;;;;79.07;32.63;;;0.10;99.90;;;;;;5114392;28;20196;-49
2022/12/17 16:26:15;;;;;;;62.45;31.10;;;-0.50;99.90;;;;;;5114473;28;20207;-53
2022/12/17 16:28:43;;;;;;;54.97;29.23;;;0.10;99.90;;;;;;5113652;28;20198;-49
2022/12/17 16:31:14;;;;;;;63.17;29.30;;;0.10;99.90;;;;;;5114243;28;20585;-53
2022/12/17 16:33:42;;;;;;;62.33;28.90;;;0.10;99.90;;;;;;5095887;28;20199;-50
2022/12/17 16:36:12;;;;;;;69.10;30.50;;;-0.10;99.90;;;;;;5113849;28;20199;-51
2022/12/17 16:38:43;;;;;;;63.83;29.05;;;0.00;99.90;;;;;;5113223;28;20211;-51
2022/12/17 16:41:10;;;;;;;69.50;32.97;;;0.00;99.90;;;;;;5113751;28;20267;-52
2022/12/17 16:43:37;;;;;;;58.92;29.40;;;0.10;99.90;;;;;;5113090;28;20233;-51
2022/12/17 16:46:04;;;;;;;56.08;28.33;;;0.20;99.90;;;;;;5095552;28;20293;-50
2022/12/17 16:48:37;;;;;;;61.55;30.95;;;0.10;99.90;;;;;;5113168;28;20208;-51
2022/12/17 16:51:15;;;;;;;62.95;28.95;;;0.00;99.90;;;;;;5113894;28;20225;-51
2022/12/17 16:53:42;;;;;;;54.63;26.75;;;0.10;99.90;;;;;;5113238;28;20250;-50
2022/12/17 16:56:14;;;;;;;63.78;29.38;;;0.00;99.90;;;;;;5113833;28;20689;-50
2022/12/17 16:58:40;;;;;;;70.80;29.42;;;0.10;99.90;;;;;;5112956;28;20211;-52
2022/12/17 17:01:07;;;;;;;65.45;31.05;;;0.30;99.90;;;;;;5113237;28;20218;-51
2022/12/17 17:03:39;;;;;;;55.47;27.65;;;0.20;99.90;;;;;;5113462;28;20633;-51
2022/12/17 17:06:06;;;;;;;72.07;31.50;;;0.20;99.90;;;;;;5113186;28;20231;-51
2022/12/17 17:08:33;;;;;;;58.13;27.88;;;0.00;99.90;;;;;;5111289;28;20196;-50
2022/12/17 17:11:09;;;;;;;59.47;29.00;;;0.20;99.90;;;;;;5112978;28;20223;-51
2022/12/17 17:13:36;;;;;;;52.17;27.67;;;0.00;99.90;;;;;;5112954;28;20247;-50
2022/12/17 17:16:03;;;;;;;53.40;29.05;;;-0.10;99.90;;;;;;5113198;28;20191;-50
2022/12/17 17:18:30;;;;;;;58.70;30.70;;;0.00;99.90;;;;;;5112365;28;20215;-50
2022/12/17 17:21:13;;;;;;;66.18;30.40;;;0.10;99.90;;;;;;5113777;28;20587;-51
2022/12/17 17:23:40;;;;;;;54.65;29.00;;;0.00;99.90;;;;;;5113296;28;20202;-49
2022/12/17 17:26:07;;;;;;;69.57;29.98;;;-0.10;99.90;;;;;;5113131;28;20221;-50
2022/12/17 17:28:33;;;;;;;60.33;29.77;;;-0.10;99.90;;;;;;5112441;28;20204;-50
2022/12/17 17:31:00;;;;;;;58.17;29.73;;;-0.50;99.90;;;;;;5112999;28;20222;-49
2022/12/17 17:33:29;;;;;;;56.83;27.77;;;0.00;99.90;;;;;;5113155;28;20192;-49
2022/12/17 17:36:02;;;;;;;53.55;28.13;;;-0.20;99.90;;;;;;5112599;28;20192;-50
2022/12/17 17:38:30;;;;;;;60.60;32.28;;;0.10;99.90;;;;;;5111977;28;20210;-50
2022/12/17 17:40:57;;;;;;;55.03;29.33;;;-0.10;99.90;;;;;;5094331;28;20225;-50
2022/12/17 17:43:24;;;;;;;65.38;32.38;;;-0.10;99.90;;;;;;5112602;28;20211;-50
2022/12/17 17:45:51;;;;;;;66.47;32.38;;;-0.10;99.90;;;;;;5112327;28;20299;-49
2022/12/17 17:48:18;;;;;;;68.40;35.00;;;-0.10;99.90;;;;;;5112294;28;20201;-51
2022/12/17 17:50:56;;;;;;;56.05;33.60;;;0.00;99.90;;;;;;5111992;28;20578;-51
2022/12/17 17:53:22;;;;;;;61.08;30.58;;;0.10;99.90;;;;;;5112453;28;20720;-50
2022/12/17 17:55:50;;;;;;;72.32;32.88;;;-0.10;99.90;;;;;;5112692;28;20192;-50
2022/12/17 17:58:17;;;;;;;65.70;33.55;;;-0.10;99.90;;;;;;5112675;28;20209;-50
2022/12/17 18:00:43;;;;;;;59.67;31.70;;;-0.10;99.90;;;;;;5111002;28;20261;-52
2022/12/17 18:03:10;;;;;;;64.43;32.13;;;-0.10;99.90;;;;;;5112476;28;20297;-50
2022/12/17 18:05:37;;;;;;;63.22;31.65;;;-0.50;99.90;;;;;;5112402;28;20231;-51
2022/12/17 18:08:04;;;;;;;58.88;29.05;;;-0.10;99.90;;;;;;5112572;28;20212;-50
2022/12/17 18:10:31;;;;;;;57.80;30.35;;;-0.20;99.90;;;;;;5111400;28;20212;-50
2022/12/17 18:15:43;;;;;;;64.88;29.42;;;-0.20;99.90;;;;;;5112424;28;20675;-50
2022/12/17 18:18:10;;;;;;;55.92;28.10;;;0.00;99.90;;;;;;5111993;28;20191;-50
2022/12/17 18:20:36;;;;;;;56.92;27.52;;;-0.10;99.90;;;;;;5092613;28;20247;-50
2022/12/17 18:23:03;;;;;;;59.17;27.73;;;-0.20;99.90;;;;;;5112072;28;20203;-52
2022/12/17 18:25:30;;;;;;;57.88;26.65;;;-0.20;99.90;;;;;;5111930;28;20223;-51
2022/12/17 18:27:56;;;;;;;59.92;28.05;;;-0.10;99.90;;;;;;5112041;28;20540;-50
2022/12/17 18:30:24;;;;;;;51.92;28.02;;;-0.20;99.90;;;;;;5092856;28;20232;-50
2022/12/17 18:32:51;;;;;;;70.70;30.42;;;-0.30;99.90;;;;;;5112222;28;20226;-49
2022/12/17 18:35:18;;;;;;;63.80;28.98;;;-0.20;99.90;;;;;;5112513;28;20220;-50
2022/12/17 18:37:45;;;;;;;58.45;28.80;;;-0.20;99.90;;;;;;5111361;28;20194;-51
2022/12/17 18:40:11;;;;;;;61.33;28.55;;;-0.70;99.90;;;;;;5111259;28;20310;-52
2022/12/17 18:45:26;;;;;;;52.47;26.33;;;-0.20;99.90;;;;;;5068997;28;20231;-51
2022/12/17 18:47:52;;;;;;;58.35;29.77;;;-0.10;99.90;;;;;;5111697;28;20196;-51
2022/12/17 18:50:19;;;;;;;59.13;29.88;;;-1.00;99.90;;;;;;5092760;28;20223;-50
2022/12/17 18:52:46;;;;;;;56.55;28.85;;;-0.30;99.90;;;;;;5111876;28;20204;-49
2022/12/17 18:55:12;;;;;;;61.03;28.00;;;-0.30;99.90;;;;;;5112222;28;20238;-51
2022/12/17 18:57:40;;;;;;;55.55;26.33;;;-0.30;99.90;;;;;;5111718;28;20205;-51
2022/12/17 19:00:08;;;;;;;52.78;26.92;;;-0.50;99.90;;;;;;5111332;28;20227;-50
2022/12/17 19:02:36;;;;;;;55.28;28.33;;;-0.50;99.90;;;;;;5112060;28;20674;-51
2022/12/17 19:05:03;;;;;;;53.08;28.67;;;-1.00;99.90;;;;;;5112230;28;20658;-51
2022/12/17 19:07:30;;;;;;;58.53;30.75;;;-0.30;99.90;;;;;;5111807;28;20245;-50
2022/12/17 19:09:56;;;;;;;61.97;29.00;;;-0.40;99.90;;;;;;5110738;28;20217;-51
2022/12/17 19:12:23;;;;;;;55.22;29.88;;;-0.70;99.90;;;;;;5111671;28;20195;-51
2022/12/17 19:14:49;;;;;;;57.83;27.58;;;-0.30;99.90;;;;;;5111719;28;20200;-51
2022/12/17 19:17:16;;;;;;;53.90;28.45;;;-0.40;99.90;;;;;;5111763;28;20200;-52
2022/12/17 19:19:44;;;;;;;49.95;25.80;;;-0.30;99.90;;;;;;5110699;28;20216;-50
2022/12/17 19:22:10;;;;;;;58.38;29.90;;;-0.30;99.90;;;;;;5111382;28;20210;-51
2022/12/17 19:24:37;;;;;;;51.08;26.65;;;-0.50;99.90;;;;;;5093137;28;20207;-51
2022/12/17 19:27:04;;;;;;;52.55;23.17;;;-0.30;99.90;;;;;;5111584;28;20207;-51
2022/12/17 19:29:30;;;;;;;51.47;26.30;;;-0.30;99.90;;;;;;5110020;28;20598;-51
2022/12/17 19:31:57;;;;;;;53.60;26.17;;;-0.40;99.90;;;;;;5114016;28;20199;-50
2022/12/17 19:34:24;;;;;;;55.63;27.00;;;-0.40;99.90;;;;;;5115408;28;20276;-51
2022/12/17 19:36:52;;;;;;;61.50;26.15;;;-0.60;99.90;;;;;;5115538;28;20193;-49
2022/12/17 19:39:19;;;;;;;58.75;26.52;;;-0.50;99.90;;;;;;5114932;28;20581;-52
2022/12/17 19:41:49;;;;;;;55.25;26.23;;;-0.30;99.90;;;;;;5115434;28;20222;-50
2022/12/17 19:44:18;;;;;;;54.28;28.15;;;-0.40;99.90;;;;;;5115528;28;20199;-52
2022/12/17 19:46:45;;;;;;;56.63;27.67;;;-0.50;99.90;;;;;;5115123;28;20247;-50
2022/12/17 19:49:13;;;;;;;57.67;27.95;;;-0.50;99.90;;;;;;5114462;28;20205;-50
2022/12/17 19:51:41;;;;;;;49.72;25.08;;;-0.40;99.90;;;;;;5115382;28;20206;-50
2022/12/17 19:54:10;;;;;;;45.65;24.77;;;-0.60;99.90;;;;;;5115012;28;20198;-52
2022/12/17 19:56:36;;;;;;;50.03;25.05;;;-0.50;99.90;;;;;;5115105;28;20201;-51
2022/12/17 19:59:07;;;;;;;51.00;24.80;;;-0.50;99.90;;;;;;5114523;28;20214;-50
2022/12/17 20:01:35;;;;;;;56.28;27.15;;;-0.60;99.90;;;;;;5115127;28;20203;-50
2022/12/17 20:04:02;;;;;;;55.05;27.27;;;-0.60;99.90;;;;;;5096453;28;20206;-50
2022/12/17 20:06:31;;;;;;;66.10;26.48;;;-0.60;99.90;;;;;;5114663;28;20625;-50
2022/12/17 20:08:58;;;;;;;53.70;25.25;;;-0.60;99.90;;;;;;5114385;28;20277;-49
2022/12/17 20:11:33;;;;;;;48.88;23.48;;;-0.50;99.90;;;;;;5114848;28;20215;-50
2022/12/17 20:14:01;;;;;;;51.35;23.63;;;-0.70;99.90;;;;;;5114743;28;20199;-50
2022/12/17 20:16:30;;;;;;;49.63;23.65;;;-0.80;99.90;;;;;;5114332;28;20651;-50
2022/12/17 20:18:58;;;;;;;53.47;25.35;;;-0.60;99.90;;;;;;5114083;28;20195;-49
2022/12/17 20:21:25;;;;;;;50.05;23.17;;;-0.60;99.90;;;;;;5114351;28;20725;-51
2022/12/17 20:23:52;;;;;;;53.03;24.67;;;-0.60;99.90;;;;;;5114541;28;20284;-49
2022/12/17 20:26:18;;;;;;;41.67;23.88;;;-0.60;99.90;;;;;;5114352;28;20235;-52
2022/12/17 20:28:46;;;;;;;45.92;21.75;;;-0.60;99.90;;;;;;5113902;28;20194;-50
2022/12/17 20:31:13;;;;;;;41.15;20.55;;;-0.80;99.90;;;;;;5136233;22;20236;-54
2022/12/17 20:33:40;;;;;;;43.17;21.48;;;-0.50;99.90;;;;;;5096966;28;20195;-53
2022/12/17 20:36:10;;;;;;;44.92;21.80;;;-0.80;99.90;;;;;;5115208;28;20191;-53
2022/12/17 20:38:37;;;;;;;48.22;21.20;;;-0.90;99.90;;;;;;5114407;28;20197;-53
2022/12/17 20:41:09;;;;;;;51.97;24.38;;;-0.90;99.90;;;;;;5115010;28;20245;-52
2022/12/17 20:43:36;;;;;;;43.30;21.35;;;-0.90;99.90;;;;;;5114721;28;20666;-51
2022/12/17 20:46:05;;;;;;;50.90;23.17;;;-1.00;99.90;;;;;;5096388;28;20225;-53
2022/12/17 20:48:32;;;;;;;53.53;24.42;;;-0.80;99.90;;;;;;5095730;28;20199;-53
2022/12/17 20:50:58;;;;;;;42.90;23.10;;;-0.90;99.90;;;;;;5096191;28;20647;-53
2022/12/17 20:53:25;;;;;;;43.95;22.98;;;-1.00;99.90;;;;;;5115130;28;20657;-50
2022/12/17 20:55:59;;;;;;;46.30;22.45;;;-0.80;99.90;;;;;;5114837;28;20190;-52
2022/12/17 20:58:26;;;;;;;51.78;25.13;;;-1.40;99.90;;;;;;5114227;28;20218;-52
2022/12/17 21:00:53;;;;;;;47.63;23.70;;;-0.90;99.90;;;;;;5114616;28;20217;-53
2022/12/17 21:03:21;;;;;;;55.20;24.60;;;-0.80;99.90;;;;;;5114593;28;20192;-53
2022/12/17 21:05:47;;;;;;;52.78;23.80;;;-0.80;99.90;;;;;;5114721;28;20206;-53
2022/12/17 21:08:14;;;;;;;44.30;25.10;;;-1.30;99.90;;;;;;5114601;28;20227;-54
2022/12/17 21:10:41;;;;;;;58.28;23.30;;;-0.80;99.90;;;;;;5113499;28;20215;-53
2022/12/17 21:15:53;;;;;;;49.95;23.92;;;-0.70;99.90;;;;;;5114466;28;20311;-52
2022/12/17 21:18:22;;;;;;;49.65;25.20;;;-0.70;99.90;;;;;;5114199;28;20287;-52
2022/12/17 21:20:57;;;;;;;51.40;24.90;;;-0.70;99.90;;;;;;5113903;28;20793;-53
2022/12/17 21:23:24;;;;;;;50.90;25.65;;;-0.90;99.90;;;;;;5114275;28;20566;-54
2022/12/17 21:26:02;;;;;;;47.15;26.55;;;-0.80;99.90;;;;;;5113958;28;20715;-53
2022/12/17 21:28:29;;;;;;;52.33;27.00;;;-0.80;99.90;;;;;;5113306;28;20562;-53
2022/12/17 21:30:56;;;;;;;46.92;23.48;;;-0.80;99.90;;;;;;5113711;28;20296;-54
2022/12/17 21:33:24;;;;;;;47.10;25.40;;;-0.70;99.90;;;;;;5114519;28;20254;-53
2022/12/17 21:35:57;;;;;;;58.70;25.77;;;-1.60;99.90;;;;;;5114018;28;20199;-53
2022/12/17 21:38:23;;;;;;;41.80;22.75;;;-0.90;99.90;;;;;;5113619;28;20195;-53
2022/12/17 21:40:50;;;;;;;47.53;25.48;;;-1.10;99.90;;;;;;5113661;28;20223;-52
2022/12/17 21:43:16;;;;;;;48.13;26.02;;;-1.10;99.90;;;;;;5095475;28;20213;-54
2022/12/17 21:45:43;;;;;;;74.43;24.23;;;-1.10;99.90;;;;;;5113670;28;20216;-53
2022/12/17 21:48:11;;;;;;;44.42;22.60;;;-1.10;99.90;;;;;;5113569;28;20205;-53
2022/12/17 21:50:41;;;;;;;45.00;25.33;;;-1.40;99.90;;;;;;5112792;28;20248;-52
2022/12/17 21:53:08;;;;;;;47.60;25.67;;;-0.60;99.90;;;;;;5113814;28;20243;-54
2022/12/17 21:55:36;;;;;;;46.45;24.95;;;-1.10;99.90;;;;;;5113331;28;20190;-53
2022/12/17 21:58:03;;;;;;;45.88;24.25;;;-1.20;99.90;;;;;;5113638;28;20195;-53
2022/12/17 22:00:30;;;;;;;50.88;26.65;;;-0.60;99.90;;;;;;5112944;28;20218;-54
2022/12/17 22:02:57;;;;;;;43.08;23.60;;;-0.90;99.90;;;;;;5113699;28;20226;-56
2022/12/17 22:05:23;;;;;;;45.00;23.35;;;-0.80;99.90;;;;;;5113836;28;20197;-52
2022/12/17 22:07:51;;;;;;;43.97;21.30;;;-1.10;99.90;;;;;;5113448;28;20198;-53
2022/12/17 22:10:19;;;;;;;48.42;24.65;;;-1.60;99.90;;;;;;5112744;28;20220;-54
2022/12/17 22:15:30;;;;;;;49.47;23.98;;;-1.20;99.90;;;;;;5113691;28;20206;-53
2022/12/17 22:17:56;;;;;;;49.83;23.33;;;-1.10;99.90;;;;;;5095228;28;20677;-53
2022/12/17 22:20:23;;;;;;;48.50;24.80;;;-1.10;99.90;;;;;;5112237;28;20218;-52
2022/12/17 22:22:51;;;;;;;40.92;23.52;;;-1.20;99.90;;;;;;5113477;28;20192;-52
2022/12/17 22:25:18;;;;;;;49.08;25.20;;;-1.30;99.90;;;;;;5113427;28;20206;-53
2022/12/17 22:27:45;;;;;;;48.08;23.20;;;-1.30;99.90;;;;;;5113246;28;20254;-53
2022/12/17 22:33:05;;;;;;;45.80;23.63;;;-1.00;99.90;;;;;;5113838;28;20189;-52
2022/12/17 22:35:36;;;;;;;46.88;22.80;;;-1.20;99.90;;;;;;5113924;28;20229;-51
2022/12/17 22:38:06;;;;;;;41.63;22.65;;;-1.00;99.90;;;;;;5113748;28;20194;-52
2022/12/17 22:40:36;;;;;;;45.75;24.10;;;-1.10;99.90;;;;;;5112261;28;20209;-53
2022/12/17 22:45:48;;;;;;;46.90;22.13;;;-1.30;99.90;;;;;;5094714;28;20291;-52
2022/12/17 22:48:14;;;;;;;46.45;21.75;;;-1.20;99.90;;;;;;5113059;28;20281;-52
2022/12/17 22:50:42;;;;;;;46.28;23.27;;;-1.10;99.90;;;;;;5112813;28;20221;-53
2022/12/17 22:53:10;;;;;;;44.75;23.20;;;-1.20;99.90;;;;;;5113632;28;20249;-53
2022/12/17 22:55:36;;;;;;;43.33;23.35;;;-1.50;99.90;;;;;;5112972;28;20202;-52
2022/12/17 22:58:03;;;;;;;43.15;23.48;;;-1.60;99.90;;;;;;5112915;28;20186;-53
2022/12/17 23:00:32;;;;;;;42.03;22.90;;;-1.50;99.90;;;;;;5112804;28;20659;-52
2022/12/17 23:03:00;;;;;;;50.60;25.63;;;-1.10;99.90;;;;;;5095152;28;20232;-51
2022/12/17 23:05:28;;;;;;;38.22;23.52;;;-1.10;99.90;;;;;;5113109;28;20214;-53
2022/12/17 23:07:55;;;;;;;48.58;24.98;;;-1.30;99.90;;;;;;5094621;28;20278;-52
2022/12/17 23:10:24;;;;;;;45.13;23.75;;;-1.20;99.90;;;;;;5112219;28;20324;-53
2022/12/17 23:12:51;;;;;;;40.97;21.40;;;-1.40;99.90;;;;;;5112547;28;20199;-53
2022/12/17 23:15:20;;;;;;;46.67;23.77;;;-1.30;99.90;;;;;;5112956;28;20198;-51
2022/12/17 23:17:47;;;;;;;43.75;21.70;;;-1.30;99.90;;;;;;5113150;28;20198;-52
2022/12/17 23:20:15;;;;;;;40.50;21.35;;;-1.10;99.90;;;;;;5111501;28;20785;-52
2022/12/17 23:22:42;;;;;;;44.65;22.63;;;-1.40;99.90;;;;;;5112540;28;20226;-53
2022/12/17 23:25:10;;;;;;;48.85;21.88;;;-1.20;99.90;;;;;;5112698;28;20289;-52
2022/12/17 23:27:41;;;;;;;44.38;21.92;;;-1.40;99.90;;;;;;5094513;28;20226;-52
2022/12/17 23:30:09;;;;;;;46.03;23.23;;;-1.10;99.90;;;;;;5112109;28;20226;-50
2022/12/17 23:32:36;;;;;;;53.42;25.10;;;-1.10;99.90;;;;;;5112795;28;20207;-50
2022/12/17 23:35:04;;;;;;;51.38;23.60;;;-1.30;99.90;;;;;;5112483;28;20194;-52
2022/12/17 23:37:30;;;;;;;45.22;25.50;;;-1.30;99.90;;;;;;5112553;28;20273;-51
2022/12/17 23:39:57;;;;;;;50.58;24.83;;;-1.50;99.90;;;;;;5094501;28;20640;-51
2022/12/17 23:42:24;;;;;;;44.83;24.17;;;-1.50;99.90;;;;;;5113743;28;20201;-50
2022/12/17 23:44:52;;;;;;;52.83;25.75;;;-1.50;99.90;;;;;;5113308;28;20733;-49
2022/12/17 23:47:19;;;;;;;41.65;23.65;;;-1.20;99.90;;;;;;5112695;28;20221;-50
2022/12/17 23:49:45;;;;;;;47.60;23.58;;;-1.50;99.90;;;;;;5112444;28;20245;-50
2022/12/17 23:52:12;;;;;;;43.65;22.58;;;-1.30;99.90;;;;;;5112753;28;20200;-50
2022/12/17 23:54:39;;;;;;;41.78;22.90;;;-1.90;99.90;;;;;;5112686;28;20198;-51
2022/12/17 23:57:05;;;;;;;35.40;20.08;;;-1.10;99.90;;;;;;5094209;28;20281;-50
2022/12/17 23:59:32;;;;;;;43.17;21.40;;;-1.20;99.90;;;;;;5112247;28;20667;-52
